Meteo Giornale » Osservazioni meteo Australia » Townsville Amo
ore: 10:30 - Osservazioni Meteo Townsville Amo
Lat. 19° 15' S Lon. 146° 45' E Alt. 6 metri s.l.m.
25 °C
Poco Nuvoloso
Temp. 24 Ore
17 °C
26 °C
Est
29.6 Km/h
Dew point 13 °C
Umidità 47 %
Visibilità 10 Km
Il sole sorge alle ore 06:21
Il sole tramonta alle ore 18:05
| Data e Ora | Cielo e Fenomeni | T °C | DP °C | Um. % | Pres. hPa | Vis. km | Vento km/h | |
|---|---|---|---|---|---|---|---|---|
| Oggi h: 10:30 | Poco Nuvoloso | 25 | 13 | 47 | 1024 | 10 | E 29.6 | |
| Oggi h: 10:00 | Poco Nuvoloso | 24 | 13 | 50 | 1025 | 10 | E 31.5 | |
| Oggi h: 09:38 | Poco Nuvoloso | 25 | 13 | 47 | 1025 | 10 | E/SE 27.8 | |
| Oggi h: 09:30 | Poco Nuvoloso | 24 | 13 | 50 | 1024 | 10 | E/SE 27.8 | |
| Oggi h: 09:00 | Poco Nuvoloso | 23 | 14 | 56 | 1025 | 10 | S/SE 13 | |
| Oggi h: 08:30 | Nuvoloso | 23 | 14 | 56 | 1024 | 10 | SE 13 | |
| Oggi h: 08:00 | Poco Nuvoloso | 21 | 13 | 60 | 1024 | 10 | S/SO 11.1 | |
| Oggi h: 07:30 | Poco Nuvoloso | 21 | 14 | 64 | 1024 | 10 | S/SE 14.8 | |
| Oggi h: 07:00 | Poco Nuvoloso | 18 | 14 | 77 | 1024 | 10 | S/SE 13 | |
| Oggi h: 06:30 | Sereno | 17 | 13 | 77 | 1023 | 10 | S 11.1 | |
| Oggi h: 06:00 | Sereno | 18 | 13 | 72 | 1023 | 10 | S 16.7 | |
| Oggi h: 05:30 | Sereno | 19 | 13 | 68 | 1023 | 10 | S/SE 13 | |
| Oggi h: 05:00 | Molto Nuvoloso | 19 | 14 | 72 | 1023 | 10 | S/SE 13 | |
| Oggi h: 04:30 | Molto Nuvoloso | 20 | 14 | 68 | 1022 | 10 | S/SE 14.8 | |
| Oggi h: 04:00 | Coperto | 20 | 14 | 68 | 1023 | 10 | S/SE 16.7 | |
| Oggi h: 03:30 | Molto Nuvoloso | 19 | 14 | 72 | 1023 | 10 | S/SE 16.7 | |
| Oggi h: 03:00 | Sereno | 18 | 13 | 72 | 1023 | 10 | SE 9.3 | |
| Oggi h: 02:30 | Sereno | 19 | 14 | 72 | 1023 | 10 | S/SE 14.8 | |
| Oggi h: 02:00 | Sereno | 19 | 14 | 72 | 1023 | 10 | S/SE 14.8 | |
| Oggi h: 01:30 | Sereno | 18 | 14 | 77 | 1024 | 10 | SE 11.1 | |
| Oggi h: 01:00 | Sereno | 19 | 13 | 68 | 1024 | 10 | S/SE 11.1 | |
| Oggi h: 00:30 | Sereno | 20 | 14 | 68 | 1024 | 10 | SE 14.8 | |
| Oggi h: 00:00 | Sereno | 20 | 13 | 64 | 1024 | 10 | SE 18.5 | |
| Ieri h: 23:30 | Sereno | 20 | 14 | 68 | 1024 | 10 | SE 20.3 | |
| Ieri h: 23:00 | Sereno | 20 | 14 | 68 | 1024 | 10 | E/SE 24 | |
| Ieri h: 22:30 | Sereno | 20 | 14 | 68 | 1024 | 10 | SE 16.7 | |
| Ieri h: 22:00 | Sereno | 21 | 14 | 64 | 1024 | 10 | E/SE 24 | |
| Ieri h: 21:30 | Nuvoloso | 21 | 15 | 68 | 1024 | 10 | E/SE 27.8 | |
| Ieri h: 21:00 | Coperto | 22 | 14 | 60 | 1024 | 10 | E/SE 35.2 | |
| Ieri h: 20:30 | Coperto | 22 | 14 | 60 | 1023 | 10 | E/SE 31.5 | |
| Ieri h: 20:00 | Coperto | 22 | 14 | 60 | 1023 | 10 | E/SE 31.5 | |
| Ieri h: 19:30 | Coperto | 22 | 15 | 64 | 1023 | 10 | E/SE 25.9 | |
| Ieri h: 19:00 | Molto Nuvoloso | 22 | 15 | 64 | 1023 | 10 | E/SE 25.9 | |
| Ieri h: 18:30 | Nuvoloso | 22 | 15 | 64 | 1022 | 10 | E/SE 27.8 | |
| Ieri h: 18:00 | Coperto | 22 | 16 | 68 | 1022 | 10 | E/SE 27.8 | |
| Ieri h: 17:30 | Molto Nuvoloso | 23 | 15 | 60 | 1022 | 10 | E/SE 27.8 | |
| Ieri h: 17:00 | Coperto | 23 | 15 | 60 | 1022 | 10 | E/SE 33.3 | |
| Ieri h: 16:35 | Molto Nuvoloso | 24 | 14 | 53 | 1022 | 10 | E 27.8 | |
| Ieri h: 16:00 | Nuvoloso | 23 | 16 | 64 | 1022 | 10 | E 33.3 | |
| Ieri h: 15:30 | Molto Nuvoloso | 25 | 13 | 47 | 1022 | 10 | E 38.8 | |
| Ieri h: 15:00 | Molto Nuvoloso | 25 | 14 | 50 | 1022 | 10 | E 35.2 | |
| Ieri h: 14:30 | Molto Nuvoloso | 26 | 15 | 50 | 1022 | 10 | E 37 | |
| Ieri h: 14:00 | Molto Nuvoloso | 26 | 13 | 44 | 1022 | 10 | E 38.8 | |
| Ieri h: 13:30 | Molto Nuvoloso | 26 | 14 | 47 | 1022 | 10 | E 33.3 | |
| Ieri h: 13:00 | Molto Nuvoloso | 25 | 14 | 50 | 1023 | 10 | E 27.8 | |
| Ieri h: 12:30 | Pioggia nelle vicinanze | 25 | 14 | 50 | 1023 | 10 | SE 29.6 | |
| Ieri h: 12:07 | Pioggia nelle vicinanze | 24 | 15 | 57 | 1024 | 10 | E 31.5 | |
| Ieri h: 12:00 | Pioggia nelle vicinanze | 24 | 14 | 53 | 1023 | 10 | E 27.8 | |
| Ieri h: 11:51 | Molto Nuvoloso | 24 | 14 | 53 | 1024 | 10 | E 31.5 | |
| Ieri h: 11:39 | Molto Nuvoloso | 26 | 14 | 47 | 1024 | 10 | E/SE 31.5 | |



